createdAt,value
2023-03-29T00:00:19.650Z,217.1253
2023-03-29T00:01:36.135Z,217.5003
2023-03-29T00:01:38.351Z,217.2504
2023-03-29T00:02:33.933Z,216.7505
2023-03-29T00:03:41.133Z,216.5004
2023-03-29T00:04:36.912Z,0.0000
2023-03-29T00:04:47.412Z,0.0000
2023-03-29T00:05:53.123Z,0.0000
2023-03-29T00:07:00.129Z,0.0000
2023-03-29T00:07:45.974Z,0.0000
2023-03-29T00:08:07.229Z,0.0000
2023-03-29T00:09:14.233Z,0.0000
2023-03-29T00:10:21.256Z,218.0003
2023-03-29T00:11:28.221Z,217.6254
2023-03-29T00:12:35.176Z,0.0000
2023-03-29T00:12:56.840Z,0.0000
2023-03-29T00:13:42.160Z,208.2449
2023-03-29T00:14:49.143Z,205.5004
2023-03-29T00:15:55.108Z,205.7147
2023-03-29T00:17:02.358Z,210.1418
2023-03-29T00:18:08.068Z,214.8754
2023-03-29T00:19:02.386Z,215.5718
2023-03-29T00:19:13.690Z,216.5004
2023-03-29T00:19:58.046Z,223.5719
2023-03-29T00:20:20.642Z,218.5008
2023-03-29T00:21:04.991Z,203.5691
2023-03-29T00:21:16.338Z,199.8753
2023-03-29T00:21:27.665Z,198.2504
2023-03-29T00:22:33.384Z,194.8754
2023-03-29T00:23:39.201Z,212.7508
2023-03-29T00:24:24.935Z,199.8745
2023-03-29T00:24:47.591Z,196.8758
2023-03-29T00:25:54.645Z,196.1255
2023-03-29T00:27:01.757Z,186.1255
2023-03-29T00:28:07.856Z,183.0005
2023-03-29T00:29:14.769Z,185.0080
2023-03-29T00:29:37.408Z,196.1254
2023-03-29T00:30:21.734Z,195.6255
2023-03-29T00:31:28.825Z,194.7920
2023-03-29T00:32:34.547Z,180.8710
2023-03-29T00:32:44.528Z,189.7147
2023-03-29T00:33:40.168Z,173.7509
2023-03-29T00:34:47.138Z,191.8754
2023-03-29T00:35:54.165Z,181.0005
2023-03-29T00:36:59.805Z,190.7510
2023-03-29T00:38:05.399Z,191.1254
2023-03-29T00:39:12.320Z,193.5003
2023-03-29T00:40:18.427Z,188.0005
2023-03-29T00:41:03.842Z,188.5005
2023-03-29T00:41:24.383Z,188.5719
2023-03-29T00:42:31.352Z,184.3754
2023-03-29T00:43:05.349Z,178.6155
2023-03-29T00:43:38.387Z,182.8585
2023-03-29T00:44:12.403Z,188.1254
2023-03-29T00:44:45.413Z,190.5002
2023-03-29T00:45:52.482Z,192.1253
2023-03-29T00:46:15.181Z,185.0859
2023-03-29T00:46:58.486Z,180.1182
2023-03-29T00:48:05.557Z,188.3754
2023-03-29T00:49:11.223Z,189.5027
2023-03-29T00:49:22.561Z,174.3886
2023-03-29T00:50:18.190Z,182.3761
2023-03-29T00:50:28.579Z,184.5719
2023-03-29T00:51:25.117Z,187.6254
2023-03-29T00:52:31.225Z,193.1432
2023-03-29T00:53:38.280Z,189.7146
2023-03-29T00:54:45.269Z,163.4999
2023-03-29T00:55:52.301Z,183.2538
2023-03-29T00:56:58.182Z,179.7477
2023-03-29T00:57:42.577Z,175.1429
2023-03-29T00:58:05.233Z,197.3724
2023-03-29T00:59:12.216Z,173.2504
2023-03-29T01:00:19.341Z,165.9979
2023-03-29T01:01:26.446Z,151.2506
2023-03-29T01:02:30.915Z,154.1265
2023-03-29T01:03:38.228Z,146.3776
2023-03-29T01:04:00.084Z,153.5037
2023-03-29T01:04:43.068Z,182.0677
2023-03-29T01:05:49.942Z,176.0003
2023-03-29T01:06:56.973Z,190.2511
2023-03-29T01:07:07.127Z,194.5716
2023-03-29T01:08:01.647Z,192.7504
2023-03-29T01:09:10.037Z,194.1253
2023-03-29T01:09:44.032Z,191.0005
2023-03-29T01:10:17.040Z,193.6253
2023-03-29T01:11:24.074Z,197.2504
2023-03-29T01:12:19.718Z,198.6245
2023-03-29T01:12:31.001Z,200.1254
2023-03-29T01:13:38.058Z,199.7505
2023-03-29T01:14:45.070Z,213.7489
2023-03-29T01:15:52.137Z,212.1255
2023-03-29T01:16:56.984Z,0.0000
2023-03-29T01:17:31.076Z,211.8754
2023-03-29T01:18:03.003Z,211.5718
2023-03-29T01:18:35.609Z,212.2504
2023-03-29T01:19:08.745Z,211.7504
2023-03-29T01:20:04.209Z,201.2863
2023-03-29T01:20:15.528Z,199.2505
2023-03-29T01:20:38.216Z,195.3755
2023-03-29T01:21:11.080Z,196.7502
2023-03-29T01:21:22.422Z,197.6255
2023-03-29T01:22:17.975Z,198.6254
2023-03-29T01:22:29.283Z,199.0003
2023-03-29T01:23:24.862Z,199.7456
2023-03-29T01:23:36.184Z,198.8647
2023-03-29T01:23:47.598Z,194.7504
2023-03-29T01:24:30.456Z,195.7505
2023-03-29T01:24:41.819Z,195.3754
2023-03-29T01:25:37.336Z,195.0005
2023-03-29T01:25:48.669Z,196.1254
2023-03-29T01:26:44.161Z,195.1254
2023-03-29T01:26:55.481Z,194.8755
2023-03-29T01:27:50.950Z,167.6254
2023-03-29T01:28:02.291Z,169.2504
2023-03-29T01:28:57.712Z,176.3754
2023-03-29T01:30:04.664Z,176.5004
2023-03-29T01:31:10.744Z,0.0000
2023-03-29T01:32:07.357Z,183.6250
2023-03-29T01:32:17.889Z,181.0004
2023-03-29T01:33:24.862Z,180.0004
2023-03-29T01:34:31.871Z,179.7504
2023-03-29T01:35:05.879Z,180.1254
2023-03-29T01:35:39.118Z,0.0000
2023-03-29T01:36:44.793Z,0.0000
2023-03-29T01:37:07.411Z,179.2504
2023-03-29T01:37:51.666Z,0.0000
2023-03-29T01:38:58.680Z,0.0000
2023-03-29T01:40:05.621Z,165.3754
2023-03-29T01:40:27.316Z,162.1526
2023-03-29T01:41:12.632Z,136.0005
2023-03-29T01:42:19.669Z,178.0005
2023-03-29T01:43:26.556Z,0.0000
2023-03-29T01:44:33.460Z,0.0000
2023-03-29T01:45:40.484Z,171.0003
2023-03-29T01:46:46.317Z,177.0006
2023-03-29T01:47:53.329Z,166.8817
2023-03-29T01:48:47.490Z,154.3634
2023-03-29T01:48:58.831Z,107.2508
2023-03-29T01:50:05.721Z,148.2504
2023-03-29T01:51:12.619Z,182.2505
2023-03-29T01:52:19.644Z,183.0005
2023-03-29T01:53:26.640Z,0.0000
2023-03-29T01:53:59.646Z,0.0000
2023-03-29T01:54:32.809Z,139.8691
2023-03-29T01:55:38.230Z,176.7147
2023-03-29T01:55:49.572Z,171.4362
2023-03-29T01:56:46.530Z,117.1254
2023-03-29T01:56:57.905Z,117.9991
2023-03-29T01:57:52.112Z,187.7148
2023-03-29T01:58:03.442Z,187.2505
2023-03-29T01:58:26.122Z,179.6254
2023-03-29T01:59:00.339Z,173.8755
2023-03-29T01:59:11.655Z,173.8755
2023-03-29T02:00:07.247Z,173.6255
2023-03-29T02:00:18.580Z,133.1999
2023-03-29T02:01:14.214Z,118.8754
2023-03-29T02:01:25.596Z,128.2499
2023-03-29T02:02:21.174Z,0.0000
2023-03-29T02:02:31.186Z,0.0000
2023-03-29T02:03:27.001Z,138.0017
2023-03-29T02:03:37.363Z,140.0004
2023-03-29T02:04:32.938Z,0.0000
2023-03-29T02:05:28.590Z,147.0004
2023-03-29T02:05:39.916Z,144.6253
2023-03-29T02:06:45.949Z,0.0000
2023-03-29T02:07:31.183Z,0.0000
2023-03-29T02:07:52.944Z,0.0000
2023-03-29T02:08:58.430Z,155.3139
2023-03-29T02:10:05.506Z,0.0000
2023-03-29T02:11:11.350Z,0.0000
2023-03-29T02:12:18.421Z,0.0000
2023-03-29T02:13:25.590Z,136.3754
2023-03-29T02:14:32.619Z,143.6254
2023-03-29T02:15:39.749Z,0.0000
2023-03-29T02:16:45.473Z,0.0000
2023-03-29T02:16:55.859Z,0.0000
2023-03-29T02:17:53.195Z,0.0000
2023-03-29T02:18:58.936Z,0.0000
2023-03-29T02:19:44.283Z,0.0000
2023-03-29T02:20:06.038Z,0.0000
2023-03-29T02:21:13.082Z,0.0000
2023-03-29T02:22:20.178Z,0.0000
2023-03-29T02:23:27.224Z,0.0000
2023-03-29T02:24:00.118Z,0.0000
2023-03-29T02:24:11.475Z,0.0000
2023-03-29T02:24:34.228Z,0.0000
2023-03-29T02:25:05.749Z,0.0000
2023-03-29T02:25:39.937Z,0.0000
2023-03-29T02:26:11.398Z,138.0004
2023-03-29T02:26:45.383Z,0.0000
2023-03-29T02:27:18.269Z,0.0000
2023-03-29T02:27:52.301Z,0.0000
2023-03-29T02:28:25.197Z,145.0004
2023-03-29T02:29:32.262Z,145.0004
2023-03-29T02:30:28.003Z,144.6254
2023-03-29T02:30:39.361Z,144.5003
2023-03-29T02:31:48.523Z,149.8754
2023-03-29T02:32:31.556Z,150.1254
2023-03-29T02:32:54.322Z,149.8754
2023-03-29T02:34:02.052Z,0.0000
2023-03-29T02:34:57.294Z,0.0000
2023-03-29T02:35:07.725Z,0.0000
2023-03-29T02:35:40.386Z,146.7504
2023-03-29T02:36:15.018Z,146.7505
2023-03-29T02:36:58.950Z,147.2504
2023-03-29T02:37:20.671Z,0.0000
2023-03-29T02:38:27.885Z,146.6254
2023-03-29T02:39:34.955Z,124.5357
2023-03-29T02:40:42.006Z,0.0000
2023-03-29T02:40:53.351Z,0.0000
2023-03-29T02:41:49.018Z,0.0000
2023-03-29T02:42:56.159Z,0.0000
2023-03-29T02:43:07.765Z,0.0000
2023-03-29T02:44:03.064Z,0.0000
2023-03-29T02:45:10.550Z,0.0000
2023-03-29T02:46:05.836Z,0.0000
2023-03-29T02:46:16.401Z,0.0000
2023-03-29T02:47:23.513Z,0.0000
2023-03-29T02:48:08.839Z,0.0000
2023-03-29T02:48:30.611Z,0.0000
2023-03-29T02:49:37.729Z,0.0000
2023-03-29T02:50:44.961Z,0.0000
2023-03-29T02:51:53.002Z,0.0000
2023-03-29T02:53:00.043Z,0.0000
2023-03-29T02:54:07.144Z,150.9441
2023-03-29T02:54:52.932Z,180.8754
2023-03-29T02:55:15.612Z,181.6254
2023-03-29T02:56:21.628Z,0.0000
2023-03-29T02:57:28.791Z,0.0000
2023-03-29T02:58:35.990Z,0.0000
2023-03-29T02:59:43.023Z,0.0000
2023-03-29T02:59:54.353Z,181.1254
2023-03-29T03:00:50.126Z,182.0004
2023-03-29T03:01:58.787Z,181.8754
2023-03-29T03:02:43.404Z,0.0000
2023-03-29T03:03:04.920Z,181.8754
2023-03-29T03:04:11.153Z,0.0000
2023-03-29T03:05:16.833Z,0.0000
2023-03-29T03:05:49.874Z,0.0000
2023-03-29T03:06:23.959Z,0.0000
2023-03-29T03:06:57.021Z,0.0000
2023-03-29T03:07:30.049Z,0.0000
2023-03-29T03:08:26.750Z,176.6255
2023-03-29T03:08:36.985Z,175.7148
2023-03-29T03:09:44.118Z,0.0000
2023-03-29T03:10:29.765Z,0.0000
2023-03-29T03:10:51.037Z,0.0000
2023-03-29T03:11:55.665Z,157.4291
2023-03-29T03:12:06.993Z,158.3753
2023-03-29T03:12:29.666Z,165.2512
2023-03-29T03:13:02.758Z,166.3754
2023-03-29T03:14:08.515Z,169.7504
2023-03-29T03:14:31.238Z,170.3754
2023-03-29T03:15:15.725Z,0.0000
2023-03-29T03:16:22.889Z,0.0000
2023-03-29T03:16:32.959Z,157.8575
2023-03-29T03:17:17.471Z,0.0000
2023-03-29T03:17:28.857Z,0.0000
2023-03-29T03:18:36.330Z,0.0000
2023-03-29T03:19:42.064Z,0.0000
2023-03-29T03:20:50.540Z,157.5004
2023-03-29T03:21:02.509Z,157.8754
2023-03-29T03:21:57.096Z,134.6254
2023-03-29T03:22:31.087Z,134.7504
2023-03-29T03:23:04.145Z,134.1255
2023-03-29T03:23:38.182Z,0.0000
2023-03-29T03:24:11.321Z,0.0000
2023-03-29T03:24:44.241Z,0.0000
2023-03-29T03:25:18.266Z,146.6254
2023-03-29T03:25:51.087Z,146.7148
2023-03-29T03:26:25.111Z,152.1254
2023-03-29T03:26:58.002Z,152.7504
2023-03-29T03:27:32.282Z,0.0000
2023-03-29T03:28:03.966Z,151.3755
2023-03-29T03:28:37.939Z,151.7504
2023-03-29T03:29:11.016Z,196.3754
2023-03-29T03:29:45.495Z,152.3838
2023-03-29T03:30:18.199Z,176.0004
2023-03-29T03:30:49.877Z,167.2649
2023-03-29T03:31:23.950Z,201.1253
2023-03-29T03:32:31.134Z,199.0004
2023-03-29T03:33:38.247Z,197.7504
2023-03-29T03:34:45.320Z,197.8755
2023-03-29T03:35:51.582Z,160.7146
2023-03-29T03:36:57.196Z,164.5719
2023-03-29T03:38:04.295Z,156.2504
2023-03-29T03:39:11.331Z,157.1255
2023-03-29T03:40:18.448Z,184.3754
2023-03-29T03:40:52.440Z,176.3755
2023-03-29T03:41:25.359Z,154.2571
2023-03-29T03:42:32.488Z,156.7505
2023-03-29T03:43:38.716Z,157.3754
2023-03-29T03:44:12.057Z,0.0000
2023-03-29T03:44:23.411Z,0.0000
2023-03-29T03:44:46.099Z,157.3754
2023-03-29T03:45:54.704Z,0.0000
2023-03-29T03:46:29.682Z,165.2510
2023-03-29T03:47:00.115Z,166.2861
2023-03-29T03:48:07.347Z,154.5720
2023-03-29T03:49:11.785Z,0.0000
2023-03-29T03:50:18.875Z,154.6255
2023-03-29T03:51:25.890Z,142.0005
2023-03-29T03:52:34.466Z,140.8754
2023-03-29T03:53:41.550Z,156.1293
2023-03-29T03:54:48.595Z,152.7504
2023-03-29T03:55:55.756Z,137.9159
2023-03-29T03:56:06.150Z,160.2675
2023-03-29T03:56:17.522Z,164.8753
2023-03-29T03:57:02.936Z,152.0132
2023-03-29T03:58:09.082Z,112.5718
2023-03-29T03:59:14.887Z,0.0000
2023-03-29T04:00:22.024Z,165.2461
2023-03-29T04:01:27.843Z,196.4291
2023-03-29T04:02:34.972Z,189.7504
2023-03-29T04:03:08.962Z,189.7503
2023-03-29T04:03:40.450Z,198.6254
2023-03-29T04:04:12.230Z,197.5719
2023-03-29T04:04:44.866Z,198.6254
2023-03-29T04:05:52.138Z,198.7504
2023-03-29T04:06:59.167Z,154.3711
2023-03-29T04:08:06.136Z,199.8753
2023-03-29T04:08:16.572Z,199.7145
2023-03-29T04:09:13.683Z,204.7504
2023-03-29T04:09:23.655Z,205.4290
2023-03-29T04:10:19.410Z,0.0000
2023-03-29T04:11:27.882Z,204.8755
2023-03-29T04:12:34.987Z,183.8395
2023-03-29T04:13:41.992Z,201.2505
2023-03-29T04:14:37.803Z,197.8754
2023-03-29T04:14:49.156Z,198.0003
2023-03-29T04:15:22.298Z,197.8577
2023-03-29T04:15:54.960Z,197.6254
2023-03-29T04:16:26.765Z,197.1432
2023-03-29T04:16:59.432Z,197.6255
2023-03-29T04:17:43.982Z,201.6250
2023-03-29T04:18:05.465Z,201.0005
2023-03-29T04:19:11.277Z,193.7503
2023-03-29T04:20:17.166Z,184.1255
2023-03-29T04:21:23.277Z,196.2862
2023-03-29T04:22:30.527Z,196.0003
2023-03-29T04:23:26.157Z,202.5719
2023-03-29T04:23:37.518Z,208.2503
2023-03-29T04:24:00.230Z,203.0004
2023-03-29T04:24:31.874Z,203.7147
2023-03-29T04:24:43.270Z,202.6254
2023-03-29T04:25:37.518Z,200.7505
2023-03-29T04:25:48.880Z,201.2503
2023-03-29T04:26:44.462Z,200.5004
2023-03-29T04:26:55.808Z,193.3872
2023-03-29T04:27:07.156Z,175.2536
2023-03-29T04:27:51.359Z,203.5004
2023-03-29T04:28:02.716Z,221.6286
2023-03-29T04:28:58.343Z,225.5067
2023-03-29T04:29:09.677Z,221.9852
2023-03-29T04:30:03.873Z,227.8575
2023-03-29T04:30:15.200Z,225.0006
2023-03-29T04:31:10.812Z,219.5000
2023-03-29T04:31:20.816Z,209.1433
2023-03-29T04:32:15.030Z,202.0005
2023-03-29T04:32:26.402Z,200.2512
2023-03-29T04:32:36.696Z,196.1437
2023-03-29T04:33:20.641Z,195.2504
2023-03-29T04:33:32.030Z,183.9963
2023-03-29T04:34:27.726Z,196.1254
2023-03-29T04:34:38.117Z,193.5720
2023-03-29T04:35:33.666Z,190.7504
2023-03-29T04:36:29.409Z,199.5002
2023-03-29T04:36:39.768Z,199.7147
2023-03-29T04:37:36.509Z,199.6254
2023-03-29T04:37:46.987Z,199.4290
2023-03-29T04:38:47.347Z,199.7146
2023-03-29T04:39:48.660Z,197.4290
2023-03-29T04:40:44.481Z,196.4290
2023-03-29T04:40:55.833Z,197.7503
2023-03-29T04:41:41.636Z,197.6254
2023-03-29T04:42:04.293Z,198.1253
2023-03-29T04:42:38.287Z,198.2504
2023-03-29T04:43:11.425Z,196.0010
2023-03-29T04:44:18.435Z,198.6255
2023-03-29T04:45:25.660Z,216.3917
2023-03-29T04:46:31.441Z,211.3994
2023-03-29T04:47:37.231Z,209.1253
2023-03-29T04:48:44.909Z,209.2504
2023-03-29T04:49:41.643Z,211.6255
2023-03-29T04:49:52.035Z,203.9990
2023-03-29T04:50:59.136Z,216.1262
2023-03-29T04:52:04.923Z,220.1060
2023-03-29T04:53:12.208Z,185.3900
2023-03-29T04:54:17.995Z,224.8887
2023-03-29T04:55:23.631Z,215.7660
2023-03-29T04:56:30.693Z,225.4300
2023-03-29T04:57:37.883Z,209.2402
2023-03-29T04:58:24.424Z,225.1248
2023-03-29T04:58:44.750Z,213.2465
2023-03-29T04:59:52.294Z,241.5537
2023-03-29T05:00:58.082Z,206.7741
2023-03-29T05:02:05.352Z,199.5055
2023-03-29T05:03:11.314Z,196.3783
2023-03-29T05:04:05.726Z,201.1155
2023-03-29T05:04:15.758Z,192.7022
2023-03-29T05:04:37.204Z,197.4837
2023-03-29T05:05:20.320Z,198.1185
2023-03-29T05:06:28.920Z,172.8606
2023-03-29T05:07:36.055Z,212.2977
2023-03-29T05:08:09.220Z,217.6231
2023-03-29T05:08:43.320Z,190.6246
2023-03-29T05:09:47.970Z,194.6169
2023-03-29T05:10:55.969Z,187.9221
2023-03-29T05:11:51.400Z,195.7795
2023-03-29T05:12:01.816Z,191.4194
2023-03-29T05:12:57.647Z,202.0016
2023-03-29T05:13:08.984Z,198.6261
2023-03-29T05:14:16.240Z,189.7547
2023-03-29T05:15:00.889Z,181.7141
2023-03-29T05:15:22.373Z,195.5722
2023-03-29T05:16:03.214Z,186.4289
2023-03-29T05:16:24.212Z,185.7230
2023-03-29T05:17:04.826Z,187.4248
2023-03-29T05:17:16.201Z,186.8697
2023-03-29T05:17:27.769Z,192.1747
2023-03-29T05:18:32.626Z,200.2503
2023-03-29T05:19:37.274Z,215.1278
2023-03-29T05:20:19.127Z,206.2540
2023-03-29T05:20:40.533Z,195.7333
2023-03-29T05:21:16.886Z,212.8578
2023-03-29T05:21:50.411Z,196.6249
2023-03-29T05:22:58.832Z,200.1298
2023-03-29T05:23:20.553Z,202.7504
2023-03-29T05:24:04.955Z,207.8576
2023-03-29T05:25:10.738Z,194.4290
2023-03-29T05:26:16.400Z,209.9997
2023-03-29T05:27:22.158Z,231.0005
2023-03-29T05:28:29.365Z,232.2503
2023-03-29T05:29:36.452Z,231.8754
2023-03-29T05:30:43.831Z,231.1253
2023-03-29T05:31:28.937Z,231.6257
2023-03-29T05:31:50.269Z,231.6254
2023-03-29T05:32:57.456Z,225.0004
2023-03-29T05:33:30.511Z,224.1254
2023-03-29T05:34:04.561Z,224.3755
2023-03-29T05:34:49.098Z,222.3752
2023-03-29T05:35:10.872Z,221.0005
2023-03-29T05:36:15.595Z,215.0007
2023-03-29T05:37:18.748Z,213.2863
2023-03-29T05:38:04.056Z,213.6254
2023-03-29T05:38:25.807Z,208.4251
2023-03-29T05:38:59.941Z,192.3754
2023-03-29T05:39:34.612Z,195.1254
2023-03-29T05:40:39.482Z,225.2505
2023-03-29T05:41:44.959Z,225.6254
2023-03-29T05:42:06.306Z,225.6254
2023-03-29T05:42:50.762Z,225.7504
2023-03-29T05:43:56.489Z,221.0005
2023-03-29T05:45:03.641Z,225.1285
2023-03-29T05:45:13.873Z,222.4290
2023-03-29T05:46:21.164Z,223.8576
2023-03-29T05:47:27.016Z,223.7504
2023-03-29T05:48:21.562Z,215.1432
2023-03-29T05:48:31.510Z,215.2860
2023-03-29T05:48:42.865Z,214.5004
2023-03-29T05:49:38.694Z,213.7505
2023-03-29T05:50:46.206Z,222.9951
2023-03-29T05:51:28.283Z,215.2326
2023-03-29T05:51:51.090Z,211.1254
2023-03-29T05:52:45.551Z,223.7750
2023-03-29T05:52:56.927Z,231.8754
2023-03-29T05:54:04.003Z,228.8756
2023-03-29T05:54:35.742Z,229.6254
2023-03-29T05:54:47.121Z,228.8755
2023-03-29T05:55:09.806Z,229.6255
2023-03-29T05:56:14.690Z,216.5012
2023-03-29T05:57:20.532Z,203.2862
2023-03-29T05:57:41.938Z,202.5006
2023-03-29T05:58:27.839Z,200.7502
2023-03-29T05:59:35.029Z,201.1255
2023-03-29T05:59:57.767Z,206.8784
2023-03-29T06:00:42.117Z,202.7505
2023-03-29T06:01:03.757Z,201.5719
2023-03-29T06:01:47.099Z,197.3755
2023-03-29T06:02:09.834Z,197.7505
2023-03-29T06:02:53.210Z,198.5719
2023-03-29T06:03:20.837Z,192.3752
2023-03-29T06:03:59.741Z,191.3754
2023-03-29T06:04:21.183Z,191.6254
2023-03-29T06:05:17.346Z,195.5004
2023-03-29T06:05:27.720Z,194.4290
2023-03-29T06:06:24.952Z,193.6254
2023-03-29T06:06:34.914Z,194.1433
2023-03-29T06:07:30.786Z,195.2861
2023-03-29T06:07:42.178Z,193.7504
2023-03-29T06:08:38.145Z,193.6254
2023-03-29T06:08:48.144Z,194.8575
2023-03-29T06:09:42.511Z,194.0004
2023-03-29T06:09:53.870Z,194.1254
2023-03-29T06:10:26.768Z,194.5718
2023-03-29T06:10:49.452Z,194.2503
2023-03-29T06:11:03.159Z,194.2504
2023-03-29T06:11:33.635Z,193.2861
2023-03-29T06:11:54.953Z,193.8754
2023-03-29T06:12:06.379Z,192.8775
2023-03-29T06:12:39.418Z,194.5004
2023-03-29T06:13:00.724Z,193.0004
2023-03-29T06:13:12.094Z,194.0004
2023-03-29T06:13:43.684Z,194.1432
2023-03-29T06:14:06.379Z,192.3751
2023-03-29T06:14:17.791Z,194.1306
2023-03-29T06:14:50.778Z,189.0004
2023-03-29T06:15:13.725Z,188.6254
2023-03-29T06:15:23.678Z,189.4289
2023-03-29T06:15:56.702Z,189.7504
2023-03-29T06:16:19.450Z,190.7504
2023-03-29T06:17:02.659Z,190.6254
2023-03-29T06:17:24.095Z,190.8754
2023-03-29T06:18:07.606Z,191.2504
2023-03-29T06:18:29.003Z,190.8754
2023-03-29T06:19:13.482Z,177.7531
2023-03-29T06:19:35.255Z,199.4290
2023-03-29T06:20:20.766Z,197.0002
2023-03-29T06:21:29.361Z,199.6276
2023-03-29T06:21:39.773Z,204.8584
2023-03-29T06:22:14.911Z,190.1254
2023-03-29T06:22:35.537Z,171.6020
2023-03-29T06:23:42.827Z,198.4294
2023-03-29T06:24:48.848Z,196.2504
2023-03-29T06:25:58.411Z,195.1254
2023-03-29T06:26:54.337Z,193.8754
2023-03-29T06:27:04.353Z,186.4498
2023-03-29T06:27:27.080Z,198.8818
2023-03-29T06:28:11.612Z,196.0025
2023-03-29T06:29:18.766Z,199.8755
2023-03-29T06:30:25.430Z,203.6254
2023-03-29T06:31:30.291Z,194.4291
2023-03-29T06:32:37.054Z,189.6254
2023-03-29T06:33:09.793Z,190.3753
2023-03-29T06:33:41.475Z,185.5761
2023-03-29T06:34:47.584Z,183.3346
2023-03-29T06:35:53.376Z,185.8753
2023-03-29T06:36:14.758Z,192.3744
2023-03-29T06:36:26.102Z,200.6255
2023-03-29T06:36:59.235Z,184.5345
2023-03-29T06:38:06.473Z,191.9993
2023-03-29T06:39:13.576Z,196.0009
2023-03-29T06:40:20.859Z,203.3820
2023-03-29T06:41:28.036Z,178.0073
2023-03-29T06:42:36.585Z,183.4991
2023-03-29T06:43:32.419Z,178.5045
2023-03-29T06:43:42.803Z,181.8627
2023-03-29T06:44:51.384Z,188.7505
2023-03-29T06:45:36.848Z,177.9818
2023-03-29T06:45:58.643Z,175.3782
2023-03-29T06:47:04.764Z,177.2539
2023-03-29T06:48:11.990Z,172.2346
2023-03-29T06:49:17.877Z,197.0005
2023-03-29T06:50:23.584Z,201.6255
2023-03-29T06:51:30.715Z,200.3754
2023-03-29T06:51:52.483Z,198.0004
2023-03-29T06:52:37.921Z,199.3754
2023-03-29T06:53:44.090Z,208.7146
2023-03-29T06:54:41.511Z,184.1230
2023-03-29T06:54:51.625Z,188.1518
2023-03-29T06:55:57.409Z,193.7504
2023-03-29T06:56:43.282Z,182.8754
2023-03-29T06:57:04.639Z,196.3802
2023-03-29T06:58:10.773Z,197.0005
2023-03-29T06:59:19.410Z,180.8788
2023-03-29T07:00:25.441Z,216.2556
2023-03-29T07:00:45.980Z,196.5666
2023-03-29T07:01:30.189Z,171.0337
2023-03-29T07:02:36.102Z,191.1254
2023-03-29T07:02:46.546Z,188.8574
2023-03-29T07:03:19.265Z,196.3754
2023-03-29T07:03:43.171Z,199.8754
2023-03-29T07:04:48.836Z,202.4248
2023-03-29T07:05:54.651Z,189.4225
2023-03-29T07:06:50.472Z,202.2862
2023-03-29T07:07:01.919Z,203.5000
2023-03-29T07:08:07.743Z,199.5002
2023-03-29T07:09:13.697Z,195.6254
2023-03-29T07:10:20.843Z,83.6254
2023-03-29T07:10:54.105Z,93.1435
2023-03-29T07:11:26.797Z,91.6254
2023-03-29T07:11:38.144Z,91.6254
2023-03-29T07:12:35.381Z,113.0511
2023-03-29T07:13:42.817Z,0.0000
2023-03-29T07:14:49.299Z,128.7520
2023-03-29T07:15:55.068Z,144.6840
2023-03-29T07:16:50.927Z,141.2363
2023-03-29T07:17:02.296Z,134.7190
2023-03-29T07:18:09.514Z,147.3682
2023-03-29T07:19:16.712Z,165.3681
2023-03-29T07:20:02.578Z,142.8619
2023-03-29T07:20:25.305Z,125.0849
2023-03-29T07:20:58.426Z,125.7999
2023-03-29T07:21:32.495Z,135.8346
2023-03-29T07:22:39.679Z,154.5004
2023-03-29T07:23:48.288Z,0.0000
2023-03-29T07:24:54.478Z,86.5714
2023-03-29T07:25:05.856Z,106.0173
2023-03-29T07:26:03.192Z,116.5004
2023-03-29T07:27:09.194Z,0.0000
2023-03-29T07:28:16.451Z,149.6254
2023-03-29T07:29:23.608Z,0.0000
2023-03-29T07:30:31.872Z,0.0000
2023-03-29T07:31:38.647Z,134.1250
2023-03-29T07:32:11.793Z,138.3754
2023-03-29T07:32:44.638Z,0.0000
2023-03-29T07:33:28.180Z,0.0000
2023-03-29T07:33:49.786Z,96.8170
2023-03-29T07:34:56.456Z,0.0000
2023-03-29T07:36:03.708Z,0.0000
2023-03-29T07:36:36.410Z,124.1254
2023-03-29T07:37:09.535Z,123.7504
2023-03-29T07:38:06.764Z,0.0000
2023-03-29T07:38:18.099Z,0.0000
2023-03-29T07:39:23.752Z,0.0000
2023-03-29T07:40:30.941Z,120.6254
2023-03-29T07:41:36.792Z,0.0000
2023-03-29T07:41:48.142Z,0.0000
2023-03-29T07:42:43.969Z,132.6254
2023-03-29T07:43:51.135Z,154.0095
2023-03-29T07:44:57.345Z,95.5718
2023-03-29T07:46:04.617Z,0.0000
2023-03-29T07:46:37.393Z,0.0000
2023-03-29T07:47:10.561Z,0.0000
2023-03-29T07:47:44.681Z,0.0000
2023-03-29T07:48:16.520Z,0.0000
2023-03-29T07:48:26.503Z,111.2249
2023-03-29T07:48:49.248Z,155.9812
2023-03-29T07:49:22.447Z,157.8726
2023-03-29T07:49:55.228Z,163.7353
2023-03-29T07:50:28.335Z,146.1254
2023-03-29T07:51:01.866Z,0.0000
2023-03-29T07:52:08.011Z,145.7147
2023-03-29T07:52:30.784Z,145.1254
2023-03-29T07:53:15.317Z,146.0004
2023-03-29T07:54:22.615Z,0.0000
2023-03-29T07:55:29.814Z,98.5003
2023-03-29T07:56:37.128Z,146.1394
2023-03-29T07:57:44.568Z,133.0004
2023-03-29T07:58:27.776Z,127.2504
2023-03-29T07:58:49.124Z,185.0004
2023-03-29T07:59:57.747Z,173.7813
2023-03-29T08:01:03.241Z,155.4292
2023-03-29T08:01:36.367Z,187.3795
2023-03-29T08:02:09.525Z,132.4290
2023-03-29T08:03:16.941Z,162.0014
2023-03-29T08:04:21.726Z,112.1432
2023-03-29T08:04:43.178Z,163.0948
2023-03-29T08:05:39.902Z,162.1253
2023-03-29T08:06:32.568Z,168.5004
2023-03-29T08:06:43.958Z,162.7558
2023-03-29T08:07:28.482Z,143.3755
2023-03-29T08:07:39.874Z,142.8754
2023-03-29T08:07:51.247Z,142.5024
2023-03-29T08:08:34.397Z,137.0004
2023-03-29T08:08:57.144Z,109.7090
2023-03-29T08:09:41.688Z,141.0004
2023-03-29T08:10:04.883Z,0.0000
2023-03-29T08:10:50.337Z,139.7504
2023-03-29T08:11:12.536Z,142.2863
2023-03-29T08:11:58.036Z,152.6334
2023-03-29T08:12:19.776Z,180.6161
2023-03-29T08:13:05.687Z,162.8339
2023-03-29T08:14:12.865Z,122.7108
2023-03-29T08:15:07.477Z,124.5718
2023-03-29T08:15:17.453Z,0.0000
2023-03-29T08:16:23.504Z,115.5720
2023-03-29T08:17:29.934Z,117.2505
2023-03-29T08:18:13.159Z,119.0004
2023-03-29T08:18:34.981Z,0.0000
2023-03-29T08:19:42.437Z,155.6254
2023-03-29T08:20:48.651Z,141.3754
2023-03-29T08:21:00.136Z,139.6254
2023-03-29T08:21:22.206Z,0.0000
2023-03-29T08:22:08.143Z,0.0000
2023-03-29T08:22:52.260Z,0.0000
2023-03-29T08:23:14.028Z,0.0000
2023-03-29T08:23:25.406Z,0.0000
2023-03-29T08:24:20.800Z,0.0000
2023-03-29T08:25:25.561Z,108.6254
2023-03-29T08:26:34.298Z,115.7504
2023-03-29T08:27:41.639Z,118.2504
2023-03-29T08:28:37.515Z,118.5004
2023-03-29T08:28:48.899Z,123.0012
2023-03-29T08:29:57.561Z,0.0000
2023-03-29T08:30:42.097Z,0.0000
2023-03-29T08:31:03.726Z,123.7504
2023-03-29T08:32:11.854Z,126.6254
2023-03-29T08:33:15.136Z,0.0000
2023-03-29T08:33:36.530Z,0.0000
2023-03-29T08:34:18.332Z,125.4290
2023-03-29T08:34:52.545Z,0.0000
2023-03-29T08:35:25.698Z,112.1312
2023-03-29T08:36:33.040Z,151.3754
2023-03-29T08:36:55.766Z,151.5005
2023-03-29T08:37:38.984Z,122.0004
2023-03-29T08:38:46.314Z,121.1254
2023-03-29T08:39:52.138Z,138.3754
2023-03-29T08:40:03.512Z,142.7442
2023-03-29T08:41:00.963Z,141.7504
2023-03-29T08:42:07.207Z,141.0004
2023-03-29T08:43:14.843Z,152.5035
2023-03-29T08:44:20.735Z,129.0004
2023-03-29T08:45:16.625Z,125.7147
2023-03-29T08:45:27.992Z,125.3754
2023-03-29T08:46:35.863Z,106.6034
2023-03-29T08:47:40.637Z,157.5030
2023-03-29T08:48:23.877Z,174.2861
2023-03-29T08:48:46.624Z,165.4997
2023-03-29T08:49:53.960Z,158.3757
2023-03-29T08:50:27.070Z,133.7145
2023-03-29T08:51:01.510Z,0.0000
2023-03-29T08:52:06.570Z,137.4290